Time;durP1;ratioP1;P1;durP2;ratioP2;P2;SDS_P1;SDS_P2;PMS_P1;PMS_P2;Temp;Humidity;BMP_temperature;BMP_pressure;BME280_temperature;BME280_humidity;BME280_pressure;Samples;Min_cycle;Max_cycle;Signal;HPM_P1;HPM_P2
2020/12/06 00:00:28;;;;;;;20.90;16.60;;;2.70;99.90;;;;;;5011970;28;20416;-65
2020/12/06 00:02:54;;;;;;;16.45;13.98;;;2.70;99.90;;;;;;5011582;28;20448;-65
2020/12/06 00:05:20;;;;;;;17.63;14.63;;;2.60;99.90;;;;;;5011410;28;20409;-64
2020/12/06 00:07:46;;;;;;;17.83;14.77;;;2.70;99.90;;;;;;5011400;28;20829;-65
2020/12/06 00:10:17;;;;;;;19.05;15.40;;;2.60;99.90;;;;;;5011329;28;20413;-65
2020/12/06 00:12:44;;;;;;;20.03;16.03;;;2.60;99.90;;;;;;5011581;28;20417;-65
2020/12/06 00:15:11;;;;;;;18.40;15.73;;;2.50;99.90;;;;;;5011454;28;20463;-65
2020/12/06 00:17:39;;;;;;;17.77;14.63;;;2.50;99.90;;;;;;5011140;28;20419;-66
2020/12/06 00:20:08;;;;;;;18.77;15.35;;;2.50;99.90;;;;;;5011388;28;20467;-65
2020/12/06 00:22:35;;;;;;;18.98;14.40;;;2.50;99.90;;;;;;5011084;28;20936;-65
2020/12/06 00:25:01;;;;;;;18.23;14.60;;;2.40;99.90;;;;;;5011236;28;20470;-65
2020/12/06 00:27:27;;;;;;;18.35;14.40;;;2.30;99.90;;;;;;5011163;28;20408;-66
2020/12/06 00:29:53;;;;;;;19.75;15.23;;;2.20;99.90;;;;;;5011457;28;20467;-65
2020/12/06 00:32:19;;;;;;;18.92;15.70;;;2.10;99.90;;;;;;5011463;28;20408;-65
2020/12/06 00:34:46;;;;;;;20.23;16.23;;;2.10;99.90;;;;;;5011065;28;20813;-65
2020/12/06 00:37:15;;;;;;;19.10;15.75;;;2.20;99.90;;;;;;5011044;28;20417;-66
2020/12/06 00:39:43;;;;;;;18.35;14.32;;;2.10;99.90;;;;;;5010819;28;20417;-65
2020/12/06 00:42:09;;;;;;;18.25;15.40;;;2.10;99.90;;;;;;5011403;28;20424;-65
2020/12/06 00:44:36;;;;;;;19.25;14.90;;;2.10;99.90;;;;;;5011121;28;20405;-65
2020/12/06 00:47:02;;;;;;;17.80;14.25;;;2.10;99.90;;;;;;5011121;28;20409;-65
2020/12/06 00:49:28;;;;;;;18.27;15.00;;;2.00;99.90;;;;;;5011116;28;20404;-66
2020/12/06 00:51:55;;;;;;;17.63;13.95;;;2.10;1.00;;;;;;5011122;28;20809;-67
2020/12/06 00:54:21;;;;;;;16.25;14.43;;;2.10;99.90;;;;;;5012042;28;20432;-65
2020/12/06 00:56:48;;;;;;;18.57;15.23;;;2.20;99.90;;;;;;5014533;28;20412;-65
2020/12/06 00:59:14;;;;;;;16.58;13.63;;;2.10;99.90;;;;;;5015157;28;20470;-66
2020/12/06 01:01:40;;;;;;;17.23;14.05;;;2.00;99.90;;;;;;5015044;28;20486;-65
2020/12/06 01:04:07;;;;;;;17.17;13.93;;;2.00;1.00;;;;;;5014742;28;20470;-66
2020/12/06 01:06:33;;;;;;;15.75;13.70;;;2.10;1.00;;;;;;5014492;28;20413;-66
2020/12/06 01:09:00;;;;;;;16.95;13.95;;;2.00;99.90;;;;;;5014424;28;20420;-66
2020/12/06 01:11:26;;;;;;;16.48;13.32;;;2.00;1.00;;;;;;5014877;28;20470;-65
2020/12/06 01:13:52;;;;;;;17.73;13.90;;;2.00;1.00;;;;;;5014636;28;20436;-65
2020/12/06 01:16:18;;;;;;;16.73;13.07;;;2.10;1.00;;;;;;5014860;28;20557;-65
2020/12/06 01:18:44;;;;;;;15.82;13.40;;;2.10;1.00;;;;;;5014503;28;20470;-66
2020/12/06 01:21:11;;;;;;;16.35;13.40;;;2.10;1.00;;;;;;5014375;28;20420;-66
2020/12/06 01:23:37;;;;;;;15.82;12.20;;;2.20;1.00;;;;;;5014464;28;20545;-65
2020/12/06 01:26:04;;;;;;;17.70;14.00;;;2.20;1.00;;;;;;5014599;28;20663;-66
2020/12/06 01:28:30;;;;;;;15.07;12.98;;;2.30;1.00;;;;;;5014375;28;20416;-65
2020/12/06 01:30:56;;;;;;;16.35;13.50;;;2.30;1.00;;;;;;5014246;28;20952;-66
2020/12/06 01:33:23;;;;;;;15.65;12.60;;;2.30;1.00;;;;;;5014380;28;20408;-65
2020/12/06 01:35:49;;;;;;;15.52;13.32;;;2.40;1.00;;;;;;5014273;28;20412;-65
2020/12/06 01:38:15;;;;;;;14.40;12.45;;;2.40;1.00;;;;;;5013781;28;20412;-65
2020/12/06 01:40:41;;;;;;;14.03;12.37;;;2.40;99.90;;;;;;5014363;28;20436;-66
2020/12/06 01:43:08;;;;;;;14.55;12.02;;;2.50;99.90;;;;;;5014110;28;20412;-65
2020/12/06 01:45:35;;;;;;;16.23;11.90;;;2.50;99.90;;;;;;5014239;28;20824;-65
2020/12/06 01:48:02;;;;;;;16.20;12.33;;;2.50;99.90;;;;;;5013753;28;20462;-66
2020/12/06 01:50:28;;;;;;;16.17;13.10;;;2.50;99.90;;;;;;5014088;28;20420;-66
2020/12/06 01:52:55;;;;;;;15.23;13.32;;;2.40;99.90;;;;;;5014402;28;20417;-65
2020/12/06 01:55:22;;;;;;;15.82;12.82;;;2.50;99.90;;;;;;5013953;28;20502;-64
2020/12/06 01:57:48;;;;;;;14.40;12.68;;;2.50;99.90;;;;;;5013879;28;20413;-65
2020/12/06 02:00:15;;;;;;;16.83;13.27;;;2.50;99.90;;;;;;5013812;28;20421;-65
2020/12/06 02:02:42;;;;;;;17.13;13.52;;;2.30;99.90;;;;;;5013856;28;20412;-64
2020/12/06 02:05:08;;;;;;;15.75;13.40;;;2.20;99.90;;;;;;5013232;28;20781;-65
2020/12/06 02:07:36;;;;;;;16.27;12.90;;;2.30;99.90;;;;;;5013451;28;20412;-65
2020/12/06 02:10:02;;;;;;;17.05;13.77;;;2.20;99.90;;;;;;5013732;28;20833;-64
2020/12/06 02:12:28;;;;;;;17.52;14.00;;;2.10;99.90;;;;;;5013485;28;20885;-65
2020/12/06 02:14:54;;;;;;;16.98;13.15;;;2.10;99.90;;;;;;5013539;28;20464;-64
2020/12/06 02:17:21;;;;;;;15.88;13.13;;;2.00;99.90;;;;;;5013202;28;20408;-65
2020/12/06 02:19:47;;;;;;;21.00;14.10;;;1.90;99.90;;;;;;5013417;28;20439;-64
2020/12/06 02:22:14;;;;;;;17.58;13.93;;;1.90;99.90;;;;;;5013562;28;20479;-65
2020/12/06 02:24:40;;;;;;;17.40;14.33;;;1.90;99.90;;;;;;5013304;28;20400;-65
2020/12/06 02:27:06;;;;;;;15.23;13.05;;;2.00;99.90;;;;;;5013372;28;20409;-64
2020/12/06 02:29:32;;;;;;;16.83;13.95;;;2.00;99.90;;;;;;5044801;22;20439;-67
2020/12/06 02:31:58;;;;;;;18.57;13.47;;;2.00;99.90;;;;;;5033182;28;20852;-67
2020/12/06 02:34:24;;;;;;;18.42;14.07;;;2.00;99.90;;;;;;5032962;28;20423;-68
2020/12/06 02:36:51;;;;;;;15.43;13.52;;;2.10;99.90;;;;;;5033008;28;20478;-67
2020/12/06 02:39:18;;;;;;;17.00;13.80;;;2.00;99.90;;;;;;5017890;28;20950;-67
2020/12/06 02:41:45;;;;;;;18.15;13.75;;;2.00;99.90;;;;;;5012952;28;20447;-67
2020/12/06 02:44:13;;;;;;;16.63;13.80;;;1.90;99.90;;;;;;5013018;28;20401;-67
2020/12/06 02:46:40;;;;;;;19.02;13.70;;;1.80;99.90;;;;;;5012717;28;20413;-68
2020/12/06 02:49:07;;;;;;;17.50;13.73;;;1.80;99.90;;;;;;5013011;28;20428;-68
2020/12/06 02:51:33;;;;;;;17.13;12.90;;;1.80;1.00;;;;;;5012696;28;20483;-67
2020/12/06 02:53:59;;;;;;;16.95;13.90;;;1.90;1.00;;;;;;5012909;28;20428;-67
2020/12/06 02:56:26;;;;;;;17.65;14.27;;;1.90;1.00;;;;;;5012837;28;20413;-68
2020/12/06 02:58:52;;;;;;;15.97;12.97;;;2.00;1.00;;;;;;5012438;28;20498;-68
2020/12/06 03:01:18;;;;;;;14.80;12.20;;;2.10;1.00;;;;;;5012644;28;20413;-65
2020/12/06 03:03:46;;;;;;;17.23;12.88;;;2.10;1.00;;;;;;5012514;28;20958;-66
2020/12/06 03:06:12;;;;;;;17.13;13.70;;;2.20;1.00;;;;;;5012839;28;20466;-68
2020/12/06 03:08:39;;;;;;;19.15;13.07;;;2.10;1.00;;;;;;5012455;28;20416;-67
2020/12/06 03:11:05;;;;;;;17.80;14.30;;;2.00;1.00;;;;;;5012448;28;20758;-68
2020/12/06 03:13:32;;;;;;;17.50;13.80;;;1.90;1.00;;;;;;5012689;28;20466;-68
2020/12/06 03:15:59;;;;;;;18.77;13.60;;;2.00;1.00;;;;;;5011976;28;20428;-65
2020/12/06 03:18:25;;;;;;;16.05;12.82;;;2.10;1.00;;;;;;5011776;28;20425;-65
2020/12/06 03:20:51;;;;;;;15.05;13.00;;;2.30;1.00;;;;;;5012332;28;20445;-66
2020/12/06 03:23:17;;;;;;;16.25;13.88;;;2.30;1.00;;;;;;5012519;28;20412;-66
2020/12/06 03:25:43;;;;;;;18.15;14.60;;;2.30;1.00;;;;;;5012199;28;20467;-68
2020/12/06 03:28:09;;;;;;;18.98;14.52;;;2.40;1.00;;;;;;5011779;28;20479;-67
2020/12/06 03:30:36;;;;;;;18.05;14.73;;;2.30;1.00;;;;;;5012154;28;20412;-67
2020/12/06 03:33:02;;;;;;;19.48;14.85;;;2.30;1.00;;;;;;5012016;28;20412;-68
2020/12/06 03:35:28;;;;;;;21.13;14.80;;;2.30;1.00;;;;;;5012221;28;20437;-67
2020/12/06 03:37:54;;;;;;;20.73;16.30;;;2.30;1.00;;;;;;5011719;28;20413;-68
2020/12/06 03:40:21;;;;;;;21.50;17.10;;;2.30;1.00;;;;;;5012211;28;20486;-65
2020/12/06 03:42:51;;;;;;;19.73;15.52;;;2.30;1.00;;;;;;5011819;28;20825;-65
2020/12/06 03:45:17;;;;;;;22.70;17.00;;;2.30;1.00;;;;;;5011627;28;20463;-67
2020/12/06 03:47:44;;;;;;;21.80;16.75;;;2.20;1.00;;;;;;5011711;28;20451;-65
2020/12/06 03:50:10;;;;;;;25.23;18.35;;;2.20;1.00;;;;;;5011844;28;20416;-67
2020/12/06 03:52:37;;;;;;;22.83;17.65;;;2.20;1.00;;;;;;5011877;28;20490;-67
2020/12/06 03:55:03;;;;;;;23.20;18.57;;;2.20;1.00;;;;;;5011790;28;20428;-68
2020/12/06 03:57:30;;;;;;;21.95;18.00;;;2.20;1.00;;;;;;5011316;28;20416;-67
2020/12/06 03:59:56;;;;;;;22.10;16.63;;;2.20;1.00;;;;;;5011578;28;20413;-67
2020/12/06 04:02:22;;;;;;;23.67;18.40;;;2.20;1.00;;;;;;5011828;28;20532;-67
2020/12/06 04:04:49;;;;;;;25.70;19.55;;;2.20;1.00;;;;;;5011686;28;20758;-67
2020/12/06 04:07:15;;;;;;;24.50;18.80;;;2.10;1.00;;;;;;5011568;28;20510;-67
2020/12/06 04:09:41;;;;;;;26.55;19.17;;;2.10;1.00;;;;;;5011528;28;20416;-67
2020/12/06 04:12:07;;;;;;;25.92;18.65;;;2.00;1.00;;;;;;5011468;28;20475;-67
2020/12/06 04:14:33;;;;;;;24.90;19.30;;;2.10;1.00;;;;;;5011316;28;20437;-68
2020/12/06 04:16:59;;;;;;;25.58;19.38;;;2.00;1.00;;;;;;5011688;28;20413;-67
2020/12/06 04:19:25;;;;;;;24.92;19.35;;;2.00;1.00;;;;;;5011213;28;20419;-67
2020/12/06 04:21:52;;;;;;;26.50;19.90;;;2.00;1.00;;;;;;5011511;28;20420;-67
2020/12/06 04:24:18;;;;;;;23.80;18.70;;;1.90;1.00;;;;;;5011316;28;20413;-67
2020/12/06 04:26:45;;;;;;;25.00;19.80;;;2.00;1.00;;;;;;5011246;28;20412;-67
2020/12/06 04:29:11;;;;;;;25.48;19.52;;;2.00;1.00;;;;;;5011418;28;20420;-67
2020/12/06 04:31:37;;;;;;;26.52;20.27;;;2.00;1.00;;;;;;5011364;28;20404;-67
2020/12/06 04:34:03;;;;;;;27.35;20.65;;;2.00;1.00;;;;;;5011378;28;20413;-67
2020/12/06 04:36:29;;;;;;;28.97;19.73;;;2.00;1.00;;;;;;5011533;28;20567;-67
2020/12/06 04:38:56;;;;;;;25.42;18.90;;;2.00;1.00;;;;;;5011696;28;20471;-65
2020/12/06 04:41:23;;;;;;;25.48;19.30;;;2.10;1.00;;;;;;5011397;28;20413;-65
2020/12/06 04:43:49;;;;;;;24.95;19.50;;;2.20;1.00;;;;;;5011434;28;20417;-67
2020/12/06 04:46:15;;;;;;;26.77;19.20;;;2.20;1.00;;;;;;5011531;28;20413;-67
2020/12/06 04:48:56;;;;;;;23.52;18.48;;;2.30;1.00;;;;;;5010965;28;20413;-67
2020/12/06 04:51:23;;;;;;;25.23;18.50;;;2.40;1.00;;;;;;5011408;28;20804;-67
2020/12/06 04:54:00;;;;;;;24.23;18.45;;;2.40;1.00;;;;;;5010924;28;20421;-65
2020/12/06 04:56:29;;;;;;;24.95;18.60;;;2.40;1.00;;;;;;5011240;28;20408;-67
2020/12/06 04:58:57;;;;;;;25.92;19.70;;;2.30;1.00;;;;;;5011088;28;20411;-67
2020/12/06 05:01:27;;;;;;;25.60;20.20;;;2.20;1.00;;;;;;5011395;28;20780;-67
2020/12/06 05:03:58;;;;;;;29.05;20.20;;;2.20;1.00;;;;;;5011267;28;20479;-67
2020/12/06 05:06:28;;;;;;;27.17;20.35;;;2.00;1.00;;;;;;5010765;28;20447;-67
2020/12/06 05:08:56;;;;;;;29.70;20.83;;;2.00;1.00;;;;;;5010813;28;20883;-67
2020/12/06 05:11:24;;;;;;;27.73;20.60;;;2.00;1.00;;;;;;5010727;28;20959;-67
2020/12/06 05:13:50;;;;;;;26.60;20.88;;;2.00;1.00;;;;;;5011226;28;20412;-67
2020/12/06 05:16:18;;;;;;;25.95;20.08;;;2.00;1.00;;;;;;5010784;28;20416;-67
2020/12/06 05:18:44;;;;;;;29.27;19.67;;;2.10;1.00;;;;;;5010982;28;20463;-67
2020/12/06 05:21:10;;;;;;;24.80;18.77;;;2.20;1.00;;;;;;5011334;28;20830;-67
2020/12/06 05:23:36;;;;;;;25.37;19.33;;;2.20;1.00;;;;;;5016010;28;20412;-67
2020/12/06 05:26:03;;;;;;;24.23;18.63;;;2.30;1.00;;;;;;5020714;28;20417;-67
2020/12/06 05:28:30;;;;;;;24.05;19.48;;;2.40;1.00;;;;;;5016021;28;20900;-67
2020/12/06 05:31:01;;;;;;;26.13;18.85;;;2.40;1.00;;;;;;5015145;28;20412;-67
2020/12/06 05:33:28;;;;;;;22.85;19.13;;;2.40;1.00;;;;;;5018484;28;20405;-67
2020/12/06 05:35:59;;;;;;;25.92;19.08;;;2.40;1.00;;;;;;5017698;28;20432;-65
2020/12/06 05:38:25;;;;;;;24.25;18.95;;;2.40;1.00;;;;;;5022459;28;20436;-65
2020/12/06 05:40:55;;;;;;;25.67;18.52;;;2.50;1.00;;;;;;5014740;28;20412;-67
2020/12/06 05:43:27;;;;;;;25.97;18.90;;;2.50;1.00;;;;;;5014681;28;20439;-67
2020/12/06 05:46:05;;;;;;;23.70;18.90;;;2.40;1.00;;;;;;5014219;28;20436;-67
2020/12/06 05:48:32;;;;;;;25.60;19.23;;;2.50;1.00;;;;;;5014121;28;20413;-67
2020/12/06 05:50:59;;;;;;;24.40;19.20;;;2.40;1.00;;;;;;5014011;28;20416;-67
2020/12/06 05:53:27;;;;;;;27.77;20.23;;;2.30;1.00;;;;;;5014320;28;20417;-67
2020/12/06 05:55:56;;;;;;;27.45;20.20;;;2.30;1.00;;;;;;5013884;28;20428;-67
2020/12/06 05:58:24;;;;;;;28.50;20.13;;;2.30;1.00;;;;;;5013700;28;20413;-67
2020/12/06 06:00:50;;;;;;;32.38;20.88;;;2.30;1.00;;;;;;5014281;28;20475;-67
2020/12/06 06:03:27;;;;;;;27.50;20.37;;;2.40;1.00;;;;;;5014097;28;20892;-67
2020/12/06 06:05:55;;;;;;;28.45;20.88;;;2.40;1.00;;;;;;5014119;28;20405;-67
2020/12/06 06:08:25;;;;;;;28.75;21.38;;;2.40;1.00;;;;;;5013497;28;20420;-67
2020/12/06 06:11:08;;;;;;;27.65;20.63;;;2.40;1.00;;;;;;5013813;28;20417;-68
2020/12/06 06:13:42;;;;;;;31.20;21.70;;;2.40;1.00;;;;;;5013892;28;20467;-67
2020/12/06 06:16:08;;;;;;;29.50;21.52;;;2.40;1.00;;;;;;5013754;28;20424;-67
2020/12/06 06:18:36;;;;;;;32.75;23.33;;;2.40;1.00;;;;;;5013498;28;20409;-67
2020/12/06 06:21:02;;;;;;;32.47;21.90;;;2.40;1.00;;;;;;5013385;28;20824;-67
2020/12/06 06:23:28;;;;;;;30.30;21.80;;;2.40;1.00;;;;;;5013475;28;20417;-67
2020/12/06 06:25:55;;;;;;;32.27;22.07;;;2.50;1.00;;;;;;5013445;28;20941;-67
2020/12/06 06:28:23;;;;;;;32.65;22.70;;;2.40;1.00;;;;;;5013216;28;20471;-68
2020/12/06 06:30:49;;;;;;;34.05;23.17;;;2.30;1.00;;;;;;5013535;28;20413;-67
2020/12/06 06:33:15;;;;;;;31.42;23.10;;;2.30;1.00;;;;;;5013167;28;20416;-67
2020/12/06 06:35:44;;;;;;;35.17;24.02;;;2.30;1.00;;;;;;5013175;28;20428;-67
2020/12/06 06:38:11;;;;;;;35.80;23.15;;;2.40;1.00;;;;;;5012866;28;20409;-67
2020/12/06 06:40:37;;;;;;;33.97;23.20;;;2.30;1.00;;;;;;5013248;28;20462;-67
2020/12/06 06:43:05;;;;;;;31.65;23.30;;;2.40;1.00;;;;;;5013139;28;20475;-67
2020/12/06 06:45:42;;;;;;;34.07;23.90;;;2.40;1.00;;;;;;5013161;28;20408;-67
2020/12/06 06:48:11;;;;;;;33.40;23.60;;;2.40;1.00;;;;;;5012816;28;20408;-67
2020/12/06 06:50:38;;;;;;;31.40;23.27;;;2.40;1.00;;;;;;5012638;28;20413;-67
2020/12/06 06:53:05;;;;;;;35.40;25.13;;;2.30;1.00;;;;;;5012029;28;20475;-67
2020/12/06 06:55:47;;;;;;;35.00;24.35;;;2.20;1.00;;;;;;5012537;28;20431;-67
2020/12/06 06:58:16;;;;;;;36.23;26.00;;;2.20;1.00;;;;;;5012777;28;20509;-67
2020/12/06 07:00:42;;;;;;;35.95;25.40;;;2.20;1.00;;;;;;5012590;28;20471;-66
2020/12/06 07:03:12;;;;;;;37.20;24.42;;;2.30;1.00;;;;;;5012644;28;20413;-67
2020/12/06 07:05:38;;;;;;;36.10;25.48;;;2.30;1.00;;;;;;5012858;28;20475;-67
2020/12/06 07:08:11;;;;;;;32.72;22.83;;;2.40;1.00;;;;;;5012354;28;20474;-67
2020/12/06 07:10:40;;;;;;;38.03;25.40;;;2.30;1.00;;;;;;5012792;28;20471;-67
2020/12/06 07:13:07;;;;;;;37.65;26.67;;;2.30;1.00;;;;;;5012459;28;20445;-67
2020/12/06 07:15:33;;;;;;;37.60;26.65;;;2.20;1.00;;;;;;5012203;28;20432;-67
2020/12/06 07:18:00;;;;;;;36.97;25.83;;;2.20;1.00;;;;;;5012334;28;20443;-67
2020/12/06 07:20:27;;;;;;;36.08;24.65;;;2.20;9.80;;;;;;5012475;28;20467;-67
2020/12/06 07:22:54;;;;;;;37.95;26.48;;;2.30;16.20;;;;;;5012562;28;20409;-67
2020/12/06 07:25:22;;;;;;;35.73;24.63;;;2.30;22.00;;;;;;5012190;28;20413;-67
2020/12/06 07:27:48;;;;;;;39.63;26.63;;;2.30;20.20;;;;;;5012007;28;20424;-67
2020/12/06 07:30:16;;;;;;;39.33;27.80;;;2.30;29.90;;;;;;5011839;28;20408;-67
2020/12/06 07:32:43;;;;;;;35.55;25.25;;;2.40;33.80;;;;;;5012440;28;20412;-67
2020/12/06 07:35:13;;;;;;;33.40;24.42;;;2.40;19.30;;;;;;5012042;28;20432;-67
2020/12/06 07:37:39;;;;;;;40.60;26.60;;;2.40;18.70;;;;;;5011990;28;20947;-67
2020/12/06 07:40:07;;;;;;;38.15;25.80;;;2.50;26.60;;;;;;5012136;28;20409;-67
2020/12/06 07:42:34;;;;;;;39.13;26.02;;;2.40;26.90;;;;;;5011669;28;20471;-66
2020/12/06 07:45:01;;;;;;;35.70;25.13;;;2.50;44.20;;;;;;5012882;28;20409;-67
2020/12/06 07:47:27;;;;;;;37.33;24.80;;;2.50;29.90;;;;;;5011859;28;20416;-67
2020/12/06 07:49:56;;;;;;;40.22;26.27;;;2.50;13.80;;;;;;5012547;28;20412;-67
2020/12/06 07:52:23;;;;;;;40.40;26.77;;;2.40;26.30;;;;;;5013830;28;20470;-67
2020/12/06 07:54:57;;;;;;;41.22;27.95;;;2.40;49.90;;;;;;5013664;28;20424;-67
2020/12/06 07:57:47;;;;;;;43.58;27.98;;;2.40;59.30;;;;;;5013842;28;20416;-67
2020/12/06 08:00:16;;;;;;;39.85;27.23;;;2.30;58.20;;;;;;5012544;28;20415;-67
2020/12/06 08:02:45;;;;;;;36.47;25.98;;;2.40;94.90;;;;;;5011574;28;20408;-67
2020/12/06 08:05:18;;;;;;;37.80;25.90;;;2.50;69.80;;;;;;5011684;28;20832;-68
2020/12/06 08:07:47;;;;;;;40.22;26.70;;;2.50;79.30;;;;;;5011577;28;20823;-67
2020/12/06 08:10:15;;;;;;;37.67;25.98;;;2.60;63.30;;;;;;5011522;28;20475;-67
2020/12/06 08:12:43;;;;;;;36.43;26.40;;;2.70;66.50;;;;;;5012745;28;20773;-67
2020/12/06 08:15:11;;;;;;;37.30;25.85;;;2.70;70.30;;;;;;5014603;28;20905;-68
2020/12/06 08:17:47;;;;;;;34.30;24.67;;;2.80;51.50;;;;;;5014148;28;20449;-67
2020/12/06 08:20:15;;;;;;;37.40;26.67;;;2.80;43.40;;;;;;5014699;28;20487;-67
2020/12/06 08:22:47;;;;;;;37.58;26.10;;;2.90;44.00;;;;;;5017269;28;20413;-67
2020/12/06 08:25:13;;;;;;;38.53;25.67;;;2.90;38.00;;;;;;5012407;28;20828;-67
2020/12/06 08:27:42;;;;;;;38.00;26.70;;;3.00;26.80;;;;;;5008746;28;20424;-67
2020/12/06 08:30:13;;;;;;;32.70;24.83;;;3.00;1.00;;;;;;5011243;28;20413;-67
2020/12/06 08:32:39;;;;;;;33.75;26.10;;;3.00;1.10;;;;;;5011310;28;20416;-67
2020/12/06 08:35:05;;;;;;;35.75;26.55;;;3.00;1.00;;;;;;5011536;28;20451;-67
2020/12/06 08:37:34;;;;;;;38.63;25.25;;;3.00;11.30;;;;;;5011368;28;20412;-67
2020/12/06 08:40:03;;;;;;;36.75;24.73;;;3.00;1.00;;;;;;5011156;28;20420;-66
2020/12/06 08:42:29;;;;;;;36.50;26.10;;;3.00;1.00;;;;;;5011439;28;20413;-66
2020/12/06 08:44:57;;;;;;;36.63;26.05;;;2.90;1.00;;;;;;5010903;28;20459;-67
2020/12/06 08:47:26;;;;;;;33.50;24.85;;;2.80;1.00;;;;;;5011059;28;20417;-67
2020/12/06 08:50:06;;;;;;;38.58;26.00;;;2.80;14.70;;;;;;5011270;28;20463;-66
2020/12/06 08:52:32;;;;;;;35.28;25.35;;;2.80;2.80;;;;;;5011198;28;20413;-67
2020/12/06 08:54:59;;;;;;;36.70;25.48;;;2.80;10.80;;;;;;5011199;28;20424;-67
2020/12/06 08:57:26;;;;;;;37.47;26.88;;;2.90;17.30;;;;;;5010910;28;20444;-67
2020/12/06 08:59:53;;;;;;;35.13;25.73;;;3.00;21.00;;;;;;5010898;28;20424;-66
2020/12/06 09:02:24;;;;;;;36.30;25.55;;;3.00;11.80;;;;;;5011197;28;20835;-66
2020/12/06 09:04:52;;;;;;;37.10;26.20;;;3.10;11.00;;;;;;5009495;28;20413;-67
2020/12/06 09:07:18;;;;;;;40.90;27.52;;;3.10;7.70;;;;;;5010857;28;20416;-66
2020/12/06 09:09:45;;;;;;;37.65;25.92;;;3.10;1.00;;;;;;5010470;28;20420;-67
2020/12/06 09:12:11;;;;;;;37.25;25.73;;;3.20;16.00;;;;;;5010688;28;20872;-67
2020/12/06 09:14:37;;;;;;;37.72;27.25;;;3.10;10.50;;;;;;5010129;28;20754;-65
2020/12/06 09:17:04;;;;;;;38.28;26.98;;;3.10;26.20;;;;;;5014462;28;20416;-65
2020/12/06 09:19:30;;;;;;;39.95;26.67;;;3.20;18.20;;;;;;5014170;28;20413;-66
2020/12/06 09:21:57;;;;;;;35.63;27.48;;;3.20;20.00;;;;;;5014515;28;20471;-65
2020/12/06 09:24:23;;;;;;;41.63;27.67;;;3.20;26.00;;;;;;5014019;28;20499;-64
2020/12/06 09:26:49;;;;;;;38.83;28.50;;;3.20;19.20;;;;;;5014480;28;20421;-64
2020/12/06 09:29:16;;;;;;;37.08;26.33;;;3.20;33.00;;;;;;5019932;28;20828;-65
2020/12/06 09:31:42;;;;;;;39.38;29.23;;;3.20;51.60;;;;;;5019262;28;20412;-64
2020/12/06 09:34:08;;;;;;;38.92;27.80;;;3.30;73.60;;;;;;5014303;28;20416;-64
2020/12/06 09:36:35;;;;;;;36.83;27.08;;;3.50;92.30;;;;;;5022938;28;20424;-65
2020/12/06 09:39:02;;;;;;;35.75;24.75;;;3.70;67.30;;;;;;5028938;28;20424;-64
2020/12/06 09:41:28;;;;;;;34.77;26.60;;;3.70;25.30;;;;;;5029344;28;20408;-68
2020/12/06 09:43:54;;;;;;;32.97;24.90;;;3.80;15.90;;;;;;5016898;28;20421;-66
2020/12/06 09:46:20;;;;;;;32.88;24.63;;;3.90;19.60;;;;;;5013802;28;20420;-66
2020/12/06 09:48:46;;;;;;;33.10;25.70;;;3.90;1.00;;;;;;5013631;28;20816;-64
2020/12/06 09:51:12;;;;;;;32.72;24.13;;;3.90;1.00;;;;;;5013803;28;20459;-65
2020/12/06 09:53:38;;;;;;;32.72;24.30;;;3.90;1.00;;;;;;5013503;28;20412;-65
2020/12/06 09:56:05;;;;;;;31.30;23.73;;;4.10;1.00;;;;;;5013180;28;20432;-65
2020/12/06 09:58:32;;;;;;;34.97;24.35;;;3.90;1.00;;;;;;5013444;28;20467;-64
2020/12/06 10:00:58;;;;;;;32.13;23.17;;;3.80;1.00;;;;;;5013344;28;20908;-65
2020/12/06 10:03:25;;;;;;;33.13;24.23;;;3.80;1.00;;;;;;5013629;28;20412;-66
2020/12/06 10:05:51;;;;;;;34.95;25.77;;;3.80;1.00;;;;;;5012676;28;20412;-66
2020/12/06 10:08:17;;;;;;;35.13;23.92;;;3.70;1.00;;;;;;5013083;28;20413;-66
2020/12/06 10:10:43;;;;;;;33.33;24.30;;;3.70;1.00;;;;;;5012962;28;20970;-65
2020/12/06 10:13:10;;;;;;;32.53;24.50;;;3.90;1.00;;;;;;5013290;28;20417;-65
2020/12/06 10:15:36;;;;;;;35.20;25.53;;;3.90;1.00;;;;;;5013047;28;20475;-66
2020/12/06 10:18:02;;;;;;;34.55;26.10;;;3.80;1.00;;;;;;5012976;28;20750;-66
2020/12/06 10:20:28;;;;;;;34.72;25.05;;;3.90;1.00;;;;;;5012740;28;20462;-65
2020/12/06 10:22:54;;;;;;;38.47;27.40;;;3.90;1.00;;;;;;5012869;28;20420;-66
2020/12/06 10:25:21;;;;;;;39.80;29.17;;;4.00;1.00;;;;;;5012606;28;20413;-65
2020/12/06 10:27:47;;;;;;;36.28;26.30;;;4.10;1.00;;;;;;5011198;28;20466;-65
2020/12/06 10:30:14;;;;;;;37.35;26.88;;;4.10;1.00;;;;;;5013050;28;20420;-66
2020/12/06 10:32:40;;;;;;;39.90;27.60;;;4.20;1.00;;;;;;5012600;28;20420;-65
2020/12/06 10:35:06;;;;;;;37.77;26.57;;;4.30;1.00;;;;;;5012091;28;20770;-65
2020/12/06 10:37:32;;;;;;;40.20;28.85;;;4.30;1.00;;;;;;5012285;28;20955;-66
2020/12/06 10:39:58;;;;;;;41.97;29.50;;;4.40;1.00;;;;;;5012575;28;20413;-65
2020/12/06 10:42:24;;;;;;;36.70;26.92;;;4.50;1.00;;;;;;5012514;28;20958;-66
2020/12/06 10:44:50;;;;;;;41.83;27.80;;;4.60;1.00;;;;;;5012237;28;20463;-66
2020/12/06 10:47:18;;;;;;;41.17;28.37;;;4.40;1.00;;;;;;5012366;28;20943;-65
2020/12/06 10:49:45;;;;;;;42.83;28.30;;;4.40;1.00;;;;;;5012207;28;20416;-65
2020/12/06 10:52:12;;;;;;;37.70;27.73;;;4.30;1.00;;;;;;5012187;28;20784;-64
2020/12/06 10:54:38;;;;;;;40.72;29.40;;;4.30;1.00;;;;;;5012141;28;20913;-66
2020/12/06 10:57:05;;;;;;;43.83;29.13;;;4.30;1.00;;;;;;5012440;28;20416;-67
2020/12/06 10:59:31;;;;;;;45.80;31.60;;;4.20;1.00;;;;;;5012361;28;20409;-66
2020/12/06 11:01:57;;;;;;;49.45;31.23;;;4.00;1.00;;;;;;5012091;28;20416;-66
2020/12/06 11:04:24;;;;;;;43.80;30.20;;;4.20;1.00;;;;;;5011906;28;20427;-66
2020/12/06 11:06:50;;;;;;;46.85;31.83;;;4.40;1.00;;;;;;5011884;28;20409;-66
2020/12/06 11:09:17;;;;;;;50.50;33.50;;;4.30;1.00;;;;;;5008307;28;20451;-67
2020/12/06 11:11:43;;;;;;;55.58;35.25;;;4.40;1.00;;;;;;4991491;28;20897;-66
2020/12/06 11:14:09;;;;;;;49.28;33.63;;;4.50;1.00;;;;;;5006794;28;20416;-67
2020/12/06 11:16:36;;;;;;;57.42;34.58;;;4.60;1.00;;;;;;5012128;28;20436;-66
2020/12/06 11:19:02;;;;;;;55.67;34.58;;;4.70;1.00;;;;;;5011327;28;20412;-66
2020/12/06 11:21:29;;;;;;;53.55;34.53;;;4.70;1.00;;;;;;5011912;28;20471;-65
2020/12/06 11:23:55;;;;;;;54.38;34.97;;;4.70;1.00;;;;;;5012245;28;20416;-66
2020/12/06 11:26:21;;;;;;;49.95;32.50;;;4.80;1.00;;;;;;5011928;28;20444;-66
2020/12/06 11:28:48;;;;;;;47.97;32.08;;;4.90;1.00;;;;;;5011819;28;20425;-67
2020/12/06 11:31:14;;;;;;;46.25;30.92;;;4.80;1.00;;;;;;5011856;28;20408;-66
2020/12/06 11:33:41;;;;;;;44.13;30.73;;;4.90;1.00;;;;;;5012187;28;20877;-66
2020/12/06 11:36:08;;;;;;;42.38;30.45;;;4.90;1.00;;;;;;5012186;28;20433;-66
2020/12/06 11:38:35;;;;;;;46.30;30.23;;;4.90;1.00;;;;;;5011214;28;20475;-66
2020/12/06 11:41:02;;;;;;;43.55;30.17;;;4.90;1.00;;;;;;5011896;28;20466;-66
2020/12/06 11:43:28;;;;;;;44.70;29.38;;;5.00;1.00;;;;;;5011574;28;20452;-67
2020/12/06 11:45:54;;;;;;;40.60;27.53;;;4.90;1.00;;;;;;5011839;28;20409;-67
2020/12/06 11:48:21;;;;;;;38.30;26.65;;;4.80;1.00;;;;;;5011683;28;20417;-67
2020/12/06 11:50:48;;;;;;;39.42;29.35;;;4.70;1.00;;;;;;5011688;28;20417;-67
2020/12/06 11:53:14;;;;;;;41.67;28.98;;;4.70;1.00;;;;;;5011860;28;20416;-67
2020/12/06 11:55:41;;;;;;;42.27;30.47;;;4.50;1.00;;;;;;5011716;28;20851;-67
2020/12/06 11:58:07;;;;;;;42.08;29.83;;;4.50;1.00;;;;;;5011693;28;20413;-67
2020/12/06 12:00:33;;;;;;;41.17;29.48;;;4.50;1.00;;;;;;5011469;28;20413;-67
2020/12/06 12:02:59;;;;;;;38.90;27.45;;;4.50;2.60;;;;;;5010675;28;20955;-67
2020/12/06 12:05:25;;;;;;;37.90;27.05;;;4.60;1.20;;;;;;5011402;28;20478;-67
2020/12/06 12:07:51;;;;;;;39.58;28.60;;;4.50;1.00;;;;;;5011393;28;20420;-67
2020/12/06 12:10:18;;;;;;;43.15;31.23;;;4.40;1.00;;;;;;5011482;28;20463;-67
2020/12/06 12:12:47;;;;;;;46.17;31.23;;;4.40;17.60;;;;;;5011242;28;20421;-68
2020/12/06 12:15:13;;;;;;;45.70;31.30;;;4.40;34.10;;;;;;5011282;28;20436;-66
2020/12/06 12:17:40;;;;;;;47.17;30.63;;;4.40;30.90;;;;;;5011178;28;20828;-68
2020/12/06 12:20:07;;;;;;;45.30;30.73;;;4.30;16.10;;;;;;5011188;28;20475;-66
2020/12/06 12:22:33;;;;;;;44.92;31.02;;;4.30;48.70;;;;;;5011293;28;20857;-66
2020/12/06 12:25:00;;;;;;;45.38;31.30;;;4.50;90.20;;;;;;5011205;28;20475;-67
2020/12/06 12:27:26;;;;;;;45.15;30.45;;;4.50;67.80;;;;;;5011087;28;20447;-67
2020/12/06 12:29:53;;;;;;;47.30;31.15;;;4.60;59.40;;;;;;5011027;28;20413;-67
2020/12/06 12:32:19;;;;;;;43.97;30.75;;;4.60;57.40;;;;;;5011134;28;20417;-67
2020/12/06 12:34:45;;;;;;;43.15;31.40;;;4.70;33.80;;;;;;5011359;28;20447;-67
2020/12/06 12:37:14;;;;;;;42.58;31.45;;;4.60;43.80;;;;;;5010695;28;20428;-67
2020/12/06 12:39:40;;;;;;;44.13;31.13;;;4.60;43.10;;;;;;5010863;28;20416;-67
2020/12/06 12:42:06;;;;;;;50.70;31.60;;;4.60;58.90;;;;;;5011021;28;20416;-67